createdAt,value
2019-02-09T00:02:28.291Z,96005.61
2019-02-09T00:04:59.505Z,96003.70
2019-02-09T00:07:30.870Z,96011.16
2019-02-09T00:10:01.847Z,96004.41
2019-02-09T00:12:32.823Z,96003.02
2019-02-09T00:15:04.284Z,96011.37
2019-02-09T00:17:35.670Z,96009.86
2019-02-09T00:20:07.569Z,96016.41
2019-02-09T00:22:39.735Z,96014.37
2019-02-09T00:25:11.355Z,96005.83
2019-02-09T00:27:42.468Z,96007.24
2019-02-09T00:30:13.766Z,96002.99
2019-02-09T00:32:45.079Z,96002.22
2019-02-09T00:35:16.423Z,95995.88
2019-02-09T00:37:47.455Z,95990.00
2019-02-09T00:40:18.908Z,95992.25
2019-02-09T00:42:50.017Z,95984.78
2019-02-09T00:45:21.525Z,95981.18
2019-02-09T00:47:52.876Z,95971.42
2019-02-09T00:50:24.458Z,95961.44
2019-02-09T00:52:55.587Z,95960.43
2019-02-09T00:55:27.282Z,95961.72
2019-02-09T00:57:59.074Z,95959.89
2019-02-09T01:00:31.671Z,95948.89
2019-02-09T01:03:03.158Z,95940.62
2019-02-09T01:05:38.100Z,95941.24
2019-02-09T01:08:10.101Z,95952.39
2019-02-09T01:10:41.416Z,95943.32
2019-02-09T01:13:13.095Z,95941.42
2019-02-09T01:15:44.445Z,95950.56
2019-02-09T01:18:15.628Z,95932.95
2019-02-09T01:20:46.669Z,95940.79
2019-02-09T01:23:18.002Z,95939.48
2019-02-09T01:25:49.304Z,95936.88
2019-02-09T01:28:20.508Z,95938.78
2019-02-09T01:30:51.635Z,95929.27
2019-02-09T01:33:22.603Z,95930.42
2019-02-09T01:35:53.926Z,95919.91
2019-02-09T01:38:25.596Z,95909.32
2019-02-09T01:40:56.723Z,95905.10
2019-02-09T01:43:27.688Z,95904.91
2019-02-09T01:45:59.017Z,95897.96
2019-02-09T01:48:30.960Z,95901.16
2019-02-09T01:51:02.047Z,95896.73
2019-02-09T01:53:33.006Z,95895.05
2019-02-09T01:56:04.310Z,95889.50
2019-02-09T01:58:35.368Z,95888.66
2019-02-09T02:01:07.085Z,95877.67
2019-02-09T02:03:38.134Z,95881.32
2019-02-09T02:06:10.211Z,95874.55
2019-02-09T02:08:41.274Z,95872.83
2019-02-09T02:11:12.349Z,95860.30
2019-02-09T02:13:43.306Z,95848.63
2019-02-09T02:16:14.309Z,95842.00
2019-02-09T02:18:45.410Z,95837.34
2019-02-09T02:21:16.780Z,95839.35
2019-02-09T02:23:48.359Z,95832.26
2019-02-09T02:26:19.358Z,95831.00
2019-02-09T02:28:50.331Z,95830.84
2019-02-09T02:31:21.391Z,95822.55
2019-02-09T02:33:52.429Z,95827.05
2019-02-09T02:36:23.563Z,95820.04
2019-02-09T02:38:54.533Z,95835.37
2019-02-09T02:41:25.621Z,95830.25
2019-02-09T02:43:56.779Z,95850.81
2019-02-09T02:46:27.779Z,95861.89
2019-02-09T02:48:59.095Z,95861.20
2019-02-09T02:51:30.129Z,95853.19
2019-02-09T02:54:01.265Z,95849.55
2019-02-09T02:56:32.287Z,95864.04
2019-02-09T02:59:03.342Z,95864.73
2019-02-09T03:01:34.321Z,95871.00
2019-02-09T03:04:05.430Z,95873.34
2019-02-09T03:06:36.562Z,95854.55
2019-02-09T03:09:09.900Z,95863.67
2019-02-09T03:11:40.895Z,95869.81
2019-02-09T03:14:12.438Z,95860.10
2019-02-09T03:16:43.426Z,95858.14
2019-02-09T03:19:14.398Z,95861.63
2019-02-09T03:21:45.389Z,95855.11
2019-02-09T03:24:16.660Z,95861.98
2019-02-09T03:26:48.073Z,95855.10
2019-02-09T03:29:19.041Z,95857.67
2019-02-09T03:31:50.128Z,95858.62
2019-02-09T03:34:21.175Z,95858.59
2019-02-09T03:36:52.355Z,95865.67
2019-02-09T03:39:23.579Z,95873.28
2019-02-09T03:41:54.911Z,95881.60
2019-02-09T03:44:26.234Z,95874.22
2019-02-09T03:46:57.286Z,95890.39
2019-02-09T03:49:28.344Z,95892.23
2019-02-09T03:51:59.813Z,95898.33
2019-02-09T03:54:30.800Z,95891.16
2019-02-09T03:57:02.762Z,95892.04
2019-02-09T03:59:33.717Z,95892.78
2019-02-09T04:02:05.146Z,95904.66
2019-02-09T04:04:36.133Z,95908.50
2019-02-09T04:07:07.238Z,95907.85
2019-02-09T04:09:38.201Z,95917.31
2019-02-09T04:12:10.400Z,95900.11
2019-02-09T04:14:41.705Z,95906.22
2019-02-09T04:17:13.006Z,95905.92
2019-02-09T04:19:44.128Z,95902.53
2019-02-09T04:22:15.103Z,95905.27
2019-02-09T04:24:46.387Z,95915.30
2019-02-09T04:27:17.648Z,95928.78
2019-02-09T04:29:48.912Z,95920.12
2019-02-09T04:32:19.893Z,95914.80
2019-02-09T04:34:51.258Z,95920.42
2019-02-09T04:37:22.361Z,95926.22
2019-02-09T04:39:53.327Z,95921.03
2019-02-09T04:42:24.792Z,95920.88
2019-02-09T04:44:55.766Z,95919.81
2019-02-09T04:47:27.107Z,95917.14
2019-02-09T04:49:59.064Z,95923.28
2019-02-09T04:52:30.137Z,95925.83
2019-02-09T04:55:02.470Z,95925.86
2019-02-09T04:57:33.524Z,95920.50
2019-02-09T05:00:05.326Z,95923.00
2019-02-09T05:02:36.390Z,95919.11
2019-02-09T05:05:08.063Z,95920.95
2019-02-09T05:07:39.194Z,95900.16
2019-02-09T05:10:12.460Z,95926.97
2019-02-09T05:12:43.613Z,95930.55
2019-02-09T05:15:15.444Z,95937.89
2019-02-09T05:17:46.819Z,95943.56
2019-02-09T05:20:20.073Z,95931.42
2019-02-09T05:22:51.349Z,95924.27
2019-02-09T05:25:23.248Z,95932.86
2019-02-09T05:27:54.350Z,95941.91
2019-02-09T05:30:28.002Z,95940.80
2019-02-09T05:33:00.605Z,95941.67
2019-02-09T05:35:32.883Z,95944.08
2019-02-09T05:38:04.405Z,95937.36
2019-02-09T05:40:35.571Z,95937.11
2019-02-09T05:43:06.995Z,95944.88
2019-02-09T05:45:38.271Z,95950.26
2019-02-09T05:48:10.943Z,95941.62
2019-02-09T05:50:42.047Z,95940.02
2019-02-09T05:53:13.145Z,95944.23
2019-02-09T05:55:45.396Z,95934.78
2019-02-09T05:58:17.348Z,95940.56
2019-02-09T06:00:48.417Z,95957.22
2019-02-09T06:03:19.410Z,95956.61
2019-02-09T06:05:50.731Z,95955.84
2019-02-09T06:08:22.330Z,95962.80
2019-02-09T06:10:53.377Z,95971.48
2019-02-09T06:13:24.394Z,95976.95
2019-02-09T06:15:56.234Z,95987.44
2019-02-09T06:18:27.262Z,95990.72
2019-02-09T06:20:58.506Z,95988.02
2019-02-09T06:23:29.818Z,95991.05
2019-02-09T06:26:03.748Z,95992.23
2019-02-09T06:28:34.942Z,95991.34
2019-02-09T06:31:06.451Z,95990.81
2019-02-09T06:33:37.448Z,95994.05
2019-02-09T06:36:08.615Z,96005.55
2019-02-09T06:38:40.736Z,96001.17
2019-02-09T06:41:12.833Z,96002.31
2019-02-09T06:43:43.926Z,96005.34
2019-02-09T06:46:14.952Z,96009.77
2019-02-09T06:48:46.008Z,96013.81
2019-02-09T06:51:17.124Z,96009.75
2019-02-09T06:53:48.122Z,96023.71
2019-02-09T06:56:19.208Z,96025.11
2019-02-09T06:58:50.478Z,96033.55
2019-02-09T07:01:21.586Z,96028.11
2019-02-09T07:03:52.644Z,96046.39
2019-02-09T07:06:23.978Z,96049.45
2019-02-09T07:08:55.508Z,96057.58
2019-02-09T07:11:27.246Z,96056.19
2019-02-09T07:13:58.458Z,96063.93
2019-02-09T07:16:29.433Z,96060.00
2019-02-09T07:19:00.523Z,96060.90
2019-02-09T07:21:34.607Z,96072.95
2019-02-09T07:24:06.353Z,96068.39
2019-02-09T07:26:38.023Z,96080.28
2019-02-09T07:29:09.176Z,96080.16
2019-02-09T07:31:41.230Z,96083.56
2019-02-09T07:34:12.512Z,96090.87
2019-02-09T07:36:43.827Z,96098.41
2019-02-09T07:39:16.002Z,96111.33
2019-02-09T07:41:48.655Z,96097.75
2019-02-09T07:44:19.962Z,96115.56
2019-02-09T07:46:51.194Z,96115.38
2019-02-09T07:49:22.888Z,96127.34
2019-02-09T07:51:54.275Z,96132.20
2019-02-09T07:54:26.043Z,96134.59
2019-02-09T07:56:57.134Z,96146.20
2019-02-09T07:59:28.663Z,96146.25
2019-02-09T08:02:04.638Z,96153.80
2019-02-09T08:04:39.228Z,96168.84
2019-02-09T08:07:11.212Z,96159.22
2019-02-09T08:09:42.680Z,96167.42
2019-02-09T08:12:14.274Z,96178.78
2019-02-09T08:14:45.422Z,96179.36
2019-02-09T08:17:16.415Z,96177.51
2019-02-09T08:19:47.564Z,96174.92
2019-02-09T08:22:18.641Z,96163.92
2019-02-09T08:24:49.652Z,96181.23
2019-02-09T08:27:23.633Z,96178.24
2019-02-09T08:29:54.069Z,96179.03
2019-02-09T08:32:25.387Z,96197.57
2019-02-09T08:34:56.855Z,96191.75
2019-02-09T08:37:27.949Z,96198.67
2019-02-09T08:39:59.474Z,96201.13
2019-02-09T08:42:31.065Z,96210.38
2019-02-09T08:45:03.129Z,96204.02
2019-02-09T08:47:34.805Z,96201.67
2019-02-09T08:50:07.072Z,96194.38
2019-02-09T08:52:38.136Z,96183.78
2019-02-09T08:55:09.602Z,96190.63
2019-02-09T08:57:41.553Z,96185.98
2019-02-09T09:00:15.784Z,96187.05
2019-02-09T09:02:47.100Z,96182.78
2019-02-09T09:05:18.840Z,96183.86
2019-02-09T09:07:50.302Z,96173.69
2019-02-09T09:12:43.196Z,96182.13
2019-02-09T09:15:25.161Z,96184.28
2019-02-09T09:17:56.230Z,96181.57
2019-02-09T09:20:33.705Z,96187.13
2019-02-09T09:23:05.183Z,96200.67
2019-02-09T09:25:36.433Z,96190.16
2019-02-09T09:28:07.693Z,96187.98
2019-02-09T09:30:38.863Z,96196.63
2019-02-09T09:33:11.466Z,96183.76
2019-02-09T09:35:42.913Z,96201.53
2019-02-09T09:38:14.042Z,96193.00
2019-02-09T09:40:45.244Z,96202.99
2019-02-09T09:43:16.472Z,96209.36
2019-02-09T09:45:47.824Z,96209.72
2019-02-09T09:48:19.810Z,96239.27
2019-02-09T09:50:50.933Z,96226.50
2019-02-09T09:53:22.349Z,96232.45
2019-02-09T09:55:53.443Z,96244.73
2019-02-09T09:58:24.857Z,96244.52
2019-02-09T10:00:56.556Z,96268.18
2019-02-09T10:03:28.129Z,96259.32
2019-02-09T10:05:59.890Z,96265.38
2019-02-09T10:08:31.669Z,96263.71
2019-02-09T10:11:02.795Z,96275.13
2019-02-09T10:13:33.803Z,96266.64
2019-02-09T10:16:05.060Z,96277.57
2019-02-09T10:18:36.158Z,96283.80
2019-02-09T10:21:07.240Z,96279.28
2019-02-09T10:23:38.287Z,96276.31
2019-02-09T10:26:09.307Z,96274.20
2019-02-09T10:28:41.532Z,96278.20
2019-02-09T10:31:12.641Z,96283.13
2019-02-09T10:33:43.638Z,96275.59
2019-02-09T10:36:14.718Z,96263.73
2019-02-09T10:38:45.712Z,96273.43
2019-02-09T10:41:16.798Z,96272.30
2019-02-09T10:43:47.872Z,96265.46
2019-02-09T10:46:19.347Z,96289.95
2019-02-09T10:48:50.725Z,96295.52
2019-02-09T10:51:22.341Z,96288.33
2019-02-09T10:53:53.648Z,96289.41
2019-02-09T10:56:24.825Z,96284.48
2019-02-09T10:58:56.587Z,96289.34
2019-02-09T11:01:28.000Z,96295.64
2019-02-09T11:03:58.996Z,96284.00
2019-02-09T11:06:30.183Z,96290.52
2019-02-09T11:09:01.357Z,96287.14
2019-02-09T11:11:33.658Z,96279.51
2019-02-09T11:14:05.077Z,96279.80
2019-02-09T11:16:36.175Z,96273.91
2019-02-09T11:19:07.261Z,96270.03
2019-02-09T11:21:38.360Z,96274.52
2019-02-09T11:24:09.755Z,96277.44
2019-02-09T11:26:41.650Z,96280.53
2019-02-09T11:29:13.286Z,96282.48
2019-02-09T11:31:44.663Z,96276.79
2019-02-09T11:34:15.896Z,96278.45
2019-02-09T11:36:47.430Z,96280.70
2019-02-09T11:39:18.989Z,96288.08
2019-02-09T11:41:50.284Z,96291.48
2019-02-09T11:44:21.311Z,96289.34
2019-02-09T11:46:52.620Z,96289.95
2019-02-09T11:49:23.628Z,96299.38
2019-02-09T11:51:54.793Z,96298.70
2019-02-09T11:54:26.164Z,96291.02
2019-02-09T11:56:57.183Z,96293.58
2019-02-09T11:59:28.256Z,96293.02
2019-02-09T12:01:59.287Z,96296.00
2019-02-09T12:04:30.346Z,96289.89
2019-02-09T12:07:01.732Z,96286.23
2019-02-09T12:09:32.729Z,96287.94
2019-02-09T12:12:05.001Z,96294.43
2019-02-09T12:14:36.068Z,96282.30
2019-02-09T12:17:07.204Z,96281.72
2019-02-09T12:19:38.196Z,96279.80
2019-02-09T12:22:09.323Z,96269.05
2019-02-09T12:24:41.616Z,96274.59
2019-02-09T12:27:12.707Z,96274.47
2019-02-09T12:29:44.766Z,96272.63
2019-02-09T12:32:16.055Z,96262.52
2019-02-09T12:34:47.118Z,96273.16
2019-02-09T12:37:18.200Z,96269.42
2019-02-09T12:39:49.195Z,96265.24
2019-02-09T12:42:20.291Z,96260.02
2019-02-09T12:44:51.689Z,96274.43
2019-02-09T12:47:30.152Z,96266.37
2019-02-09T12:50:09.027Z,96274.50
2019-02-09T12:52:41.927Z,96258.86
2019-02-09T12:55:13.498Z,96257.84
2019-02-09T12:57:44.893Z,96263.39
2019-02-09T13:00:28.214Z,96252.73
2019-02-09T13:03:03.448Z,96245.80
2019-02-09T13:05:34.720Z,96244.33
2019-02-09T13:08:06.274Z,96244.83
2019-02-09T13:10:37.424Z,96249.22
2019-02-09T13:13:09.098Z,96250.41
2019-02-09T13:15:40.080Z,96254.78
2019-02-09T13:18:11.950Z,96252.09
2019-02-09T13:20:43.248Z,96246.16
2019-02-09T13:23:14.703Z,96260.42
2019-02-09T13:25:46.327Z,96262.84
2019-02-09T13:28:17.360Z,96252.45
2019-02-09T13:30:49.196Z,96260.28
2019-02-09T13:33:20.390Z,96257.41
2019-02-09T13:35:51.724Z,96262.02
2019-02-09T13:38:22.750Z,96258.52
2019-02-09T13:40:53.948Z,96255.66
2019-02-09T13:43:25.030Z,96272.27
2019-02-09T13:45:56.299Z,96269.56
2019-02-09T13:48:27.976Z,96272.71
2019-02-09T13:50:59.623Z,96273.58
2019-02-09T13:53:31.689Z,96262.12
2019-02-09T13:59:20.622Z,96274.02
2019-02-09T14:01:53.136Z,96263.86
2019-02-09T14:04:24.148Z,96273.66
2019-02-09T14:09:48.011Z,96286.83
2019-02-09T14:12:19.509Z,96289.23
2019-02-09T14:14:50.728Z,96280.53
2019-02-09T14:17:21.649Z,96283.41
2019-02-09T14:19:52.679Z,96279.95
2019-02-09T14:22:23.909Z,96287.77
2019-02-09T14:24:55.037Z,96293.27
2019-02-09T14:27:27.179Z,96287.54
2019-02-09T14:29:58.573Z,96294.05
2019-02-09T14:32:29.627Z,96295.52
2019-02-09T14:35:00.979Z,96291.30
2019-02-09T14:37:32.008Z,96295.36
2019-02-09T14:40:04.437Z,96297.42
2019-02-09T14:42:35.860Z,96287.11
2019-02-09T14:45:10.929Z,96288.50
2019-02-09T14:47:41.988Z,96294.73
2019-02-09T14:50:13.897Z,96287.97
2019-02-09T14:52:45.059Z,96280.74
2019-02-09T14:55:21.243Z,96291.08
2019-02-09T14:57:52.298Z,96288.77
2019-02-09T15:00:27.102Z,96291.16
2019-02-09T15:02:58.210Z,96298.00
2019-02-09T15:05:29.661Z,96303.90
2019-02-09T15:08:01.039Z,96304.83
2019-02-09T15:10:32.512Z,96303.28
2019-02-09T15:13:03.569Z,96296.05
2019-02-09T15:15:39.008Z,96301.38
2019-02-09T15:18:10.940Z,96316.97
2019-02-09T15:20:47.223Z,96309.77
2019-02-09T15:23:19.992Z,96315.25
2019-02-09T15:25:51.753Z,96319.27
2019-02-09T15:28:23.303Z,96330.00
2019-02-09T15:30:54.738Z,96329.43
2019-02-09T15:33:25.806Z,96319.05
2019-02-09T15:35:58.705Z,96330.19
2019-02-09T15:38:30.237Z,96328.27
2019-02-09T15:41:01.857Z,96329.23
2019-02-09T15:43:33.122Z,96334.77
2019-02-09T15:46:04.793Z,96338.40
2019-02-09T15:48:35.953Z,96330.89
2019-02-09T15:51:07.150Z,96334.22
2019-02-09T15:53:38.226Z,96331.27
2019-02-09T15:56:09.311Z,96330.02
2019-02-09T15:58:40.929Z,96329.66
2019-02-09T16:01:12.374Z,96331.86
2019-02-09T16:03:43.750Z,96338.45
2019-02-09T16:06:15.203Z,96357.84
2019-02-09T16:08:46.749Z,96353.50
2019-02-09T16:11:18.398Z,96357.91
2019-02-09T16:13:50.041Z,96356.88
2019-02-09T16:16:21.440Z,96357.98
2019-02-09T16:18:52.839Z,96350.02
2019-02-09T16:24:06.241Z,96345.05
2019-02-09T16:26:37.334Z,96350.30
2019-02-09T16:29:08.591Z,96351.48
2019-02-09T16:31:39.935Z,96350.16
2019-02-09T16:34:11.281Z,96357.73
2019-02-09T16:36:42.309Z,96351.19
2019-02-09T16:39:13.354Z,96358.19
2019-02-09T16:41:44.955Z,96357.98
2019-02-09T16:44:15.925Z,96358.88
2019-02-09T16:46:47.310Z,96355.75
2019-02-09T16:49:18.361Z,96361.70
2019-02-09T16:51:50.668Z,96361.89
2019-02-09T16:54:21.858Z,96366.48
2019-02-09T16:56:52.960Z,96356.44
2019-02-09T16:59:24.369Z,96351.73
2019-02-09T17:01:55.517Z,96351.80
2019-02-09T17:04:33.133Z,96349.67
2019-02-09T17:07:00.736Z,96351.89
2019-02-09T17:09:32.956Z,96349.52
2019-02-09T17:12:04.233Z,96355.41
2019-02-09T17:14:35.492Z,96350.67
2019-02-09T17:17:06.662Z,96351.02
2019-02-09T17:19:37.642Z,96359.88
2019-02-09T17:22:08.955Z,96354.82
2019-02-09T17:24:41.190Z,96363.55
2019-02-09T17:27:12.477Z,96358.43
2019-02-09T17:29:44.260Z,96364.61
2019-02-09T17:32:15.703Z,96357.95
2019-02-09T17:34:46.834Z,96365.63
2019-02-09T17:37:18.293Z,96375.25
2019-02-09T17:39:50.839Z,96377.55
2019-02-09T17:42:22.775Z,96373.94
2019-02-09T17:44:54.459Z,96363.58
2019-02-09T17:47:25.627Z,96372.05
2019-02-09T17:49:58.450Z,96377.18
2019-02-09T17:52:29.554Z,96380.48
2019-02-09T17:55:00.697Z,96375.47
2019-02-09T17:57:31.739Z,96380.06
2019-02-09T18:00:03.225Z,96381.41
2019-02-09T18:02:34.306Z,96376.48
2019-02-09T18:05:06.608Z,96370.38
2019-02-09T18:07:37.848Z,96375.41
2019-02-09T18:10:12.552Z,96377.76
2019-02-09T18:12:43.836Z,96371.98
2019-02-09T18:15:16.724Z,96377.88
2019-02-09T18:17:48.508Z,96379.27
2019-02-09T18:20:21.323Z,96383.56
2019-02-09T18:22:52.749Z,96389.39
2019-02-09T18:25:24.212Z,96384.50
2019-02-09T18:27:55.439Z,96388.08
2019-02-09T18:30:26.854Z,96391.91
2019-02-09T18:32:58.179Z,96383.81
2019-02-09T18:35:29.856Z,96381.14
2019-02-09T18:38:01.416Z,96376.30
2019-02-09T18:40:32.537Z,96368.48
2019-02-09T18:43:03.900Z,96375.72
2019-02-09T18:45:35.247Z,96376.00
2019-02-09T18:48:07.342Z,96381.09
2019-02-09T18:50:38.953Z,96377.19
2019-02-09T18:53:10.496Z,96375.84
2019-02-09T18:55:42.390Z,96370.91
2019-02-09T18:58:14.161Z,96378.17
2019-02-09T19:00:45.331Z,96384.02
2019-02-09T19:03:16.763Z,96387.45
2019-02-09T19:05:47.845Z,96382.44
2019-02-09T19:08:18.912Z,96372.72
2019-02-09T19:10:51.786Z,96369.84
2019-02-09T19:13:23.116Z,96375.22
2019-02-09T19:15:54.690Z,96367.20
2019-02-09T19:18:26.369Z,96369.19
2019-02-09T19:21:00.224Z,96369.42
2019-02-09T19:23:31.719Z,96369.05
2019-02-09T19:26:03.288Z,96373.61
2019-02-09T19:28:44.708Z,96365.05
2019-02-09T19:31:16.496Z,96371.68
2019-02-09T19:33:48.272Z,96357.92
2019-02-09T19:36:19.236Z,96343.75
2019-02-09T19:38:50.652Z,96341.63
2019-02-09T19:41:21.961Z,96352.75
2019-02-09T19:43:53.794Z,96342.28
2019-02-09T19:46:25.672Z,96333.25
2019-02-09T19:48:56.732Z,96334.23
2019-02-09T19:51:27.938Z,96331.39
2019-02-09T19:53:58.963Z,96333.66
2019-02-09T19:56:30.002Z,96334.80
2019-02-09T19:59:01.019Z,96345.39
2019-02-09T20:01:32.980Z,96348.47
2019-02-09T20:04:04.170Z,96343.34
2019-02-09T20:06:35.444Z,96343.26
2019-02-09T20:09:08.982Z,96344.86
2019-02-09T20:11:40.042Z,96343.39
2019-02-09T20:14:11.190Z,96345.44
2019-02-09T20:16:42.344Z,96343.42
2019-02-09T20:19:13.411Z,96340.38
2019-02-09T20:21:44.389Z,96337.61
2019-02-09T20:24:15.507Z,96344.68
2019-02-09T20:26:48.167Z,96350.43
2019-02-09T20:29:19.334Z,96345.26
2019-02-09T20:31:50.612Z,96342.13
2019-02-09T20:34:22.199Z,96339.30
2019-02-09T20:36:54.251Z,96337.50
2019-02-09T20:39:25.223Z,96338.88
2019-02-09T20:41:56.314Z,96337.41
2019-02-09T20:44:27.664Z,96341.44
2019-02-09T20:46:59.079Z,96334.17
2019-02-09T20:49:30.145Z,96337.91
2019-02-09T20:52:01.227Z,96340.91
2019-02-09T20:54:32.343Z,96336.77
2019-02-09T20:57:03.756Z,96330.20
2019-02-09T20:59:35.276Z,96332.65
2019-02-09T21:02:06.390Z,96338.31
2019-02-09T21:04:37.563Z,96331.31
2019-02-09T21:07:08.588Z,96330.91
2019-02-09T21:09:39.577Z,96327.81
2019-02-09T21:12:10.840Z,96331.11
2019-02-09T21:14:41.809Z,96327.90
2019-02-09T21:17:12.823Z,96328.39
2019-02-09T21:19:44.070Z,96329.00
2019-02-09T21:22:15.298Z,96327.31
2019-02-09T21:24:46.565Z,96324.19
2019-02-09T21:27:17.570Z,96328.13
2019-02-09T21:29:48.849Z,96324.77
2019-02-09T21:32:20.122Z,96326.49
2019-02-09T21:34:52.319Z,96312.92
2019-02-09T21:37:23.632Z,96309.72
2019-02-09T21:39:55.157Z,96312.05
2019-02-09T21:42:26.161Z,96312.34
2019-02-09T21:44:57.654Z,96312.34
2019-02-09T21:47:28.668Z,96304.55
2019-02-09T21:49:59.963Z,96304.17
2019-02-09T21:52:31.312Z,96302.02
2019-02-09T21:55:02.959Z,96302.45
2019-02-09T21:57:34.059Z,96297.58
2019-02-09T22:00:09.201Z,96296.35
2019-02-09T22:02:42.596Z,96298.08
2019-02-09T22:05:13.569Z,96301.31
2019-02-09T22:07:45.122Z,96297.37
2019-02-09T22:10:19.760Z,96299.15
2019-02-09T22:12:51.379Z,96296.35
2019-02-09T22:15:23.819Z,96296.23
2019-02-09T22:17:54.982Z,96304.31
2019-02-09T22:20:26.580Z,96302.39
2019-02-09T22:22:58.472Z,96300.46
2019-02-09T22:25:29.505Z,96301.61
2019-02-09T22:28:00.703Z,96295.58
2019-02-09T22:30:31.856Z,96298.33
2019-02-09T22:33:03.486Z,96300.94
2019-02-09T22:35:34.586Z,96297.70
2019-02-09T22:38:06.934Z,96288.63
2019-02-09T22:40:38.696Z,96288.94
2019-02-09T22:43:10.307Z,96277.56
2019-02-09T22:45:41.274Z,96274.64
2019-02-09T22:48:12.452Z,96261.39
2019-02-09T22:50:45.965Z,96261.05
2019-02-09T22:53:17.143Z,96261.13
2019-02-09T22:55:48.105Z,96264.98
2019-02-09T22:58:19.503Z,96264.78
2019-02-09T23:01:43.562Z,96266.39
2019-02-09T23:04:50.298Z,96264.88
2019-02-09T23:07:34.199Z,96257.93
2019-02-09T23:10:14.006Z,96254.89
2019-02-09T23:12:48.720Z,96251.86
2019-02-09T23:15:17.885Z,96253.12
2019-02-09T23:17:49.014Z,96250.70
2019-02-09T23:20:19.990Z,96245.94
2019-02-09T23:22:50.971Z,96230.52
2019-02-09T23:25:22.842Z,96234.86
2019-02-09T23:27:53.813Z,96235.39
2019-02-09T23:30:25.120Z,96225.33
2019-02-09T23:32:56.419Z,96222.99
2019-02-09T23:35:27.417Z,96226.72
2019-02-09T23:37:58.637Z,96220.73
2019-02-09T23:40:29.601Z,96225.27
2019-02-09T23:43:00.575Z,96214.06
2019-02-09T23:45:31.624Z,96213.63
2019-02-09T23:48:02.630Z,96215.35
2019-02-09T23:50:33.596Z,96203.66
2019-02-09T23:53:04.577Z,96199.48
2019-02-09T23:55:35.855Z,96204.87
2019-02-09T23:58:07.482Z,96192.62
